Macon, Tennessee
Current Conditions -  °F | °C
As of 6:50 AM on Friday 24 Oct 2014 (Local Time) from KOLV Reporting Station
Haze Haze  
Wind Chill: 45°   Ceiling: Unl
Heat Index: 45°   Visibility: 6mi
Dew Point: 45°   Wind: 0mph
Humidity: 100%   Direction: NA
Pressure: 30.14"   Gusts: NA
Location:  35.15°N, 89.49°W
Report Text: KOLV 241150Z 00000KT 6SM BR FEW250 07/07 A3014
Loading
Personal Weather Stations






























Interactive Weather Map
Tropical Storm Tracking
New forecast layout! Learn more

10-Day Weather Forecast

Advertisements
Track Severe Weather on mobile